Time;durP1;ratioP1;P1;durP2;ratioP2;P2;SDS_P1;SDS_P2;PMS_P1;PMS_P2;Temp;Humidity;BMP_temperature;BMP_pressure;BME280_temperature;BME280_humidity;BME280_pressure;Samples;Min_cycle;Max_cycle;Signal;HPM_P1;HPM_P2
2024/04/19 00:04:42;;;;;;;7.95;5.32;;;;;;;6.32;100.00;101055.34;10873537;26;20008;-73
2024/04/19 00:09:39;;;;;;;9.45;5.85;;;;;;;6.37;100.00;101040.91;10790351;26;20092;-73
2024/04/19 00:14:36;;;;;;;7.28;5.35;;;;;;;6.33;100.00;101035.22;10781736;26;20024;-73
2024/04/19 00:19:33;;;;;;;10.30;5.60;;;;;;;6.33;100.00;101027.06;10865689;26;20098;-71
2024/04/19 00:24:30;;;;;;;9.45;5.63;;;;;;;6.37;100.00;101006.41;10800763;26;20006;-74
2024/04/19 00:29:28;;;;;;;11.00;5.72;;;;;;;6.43;100.00;101007.19;10779626;26;20494;-73
2024/04/19 00:34:25;;;;;;;12.27;5.97;;;;;;;6.43;100.00;100996.31;10781402;26;20083;-74
2024/04/19 00:39:22;;;;;;;6.07;5.50;;;;;;;6.34;100.00;100984.47;10783723;26;20021;-75
2024/04/19 00:44:19;;;;;;;10.95;6.07;;;;;;;6.29;100.00;100979.88;10791844;26;20787;-74
2024/04/19 00:49:16;;;;;;;8.68;5.65;;;;;;;6.18;100.00;100972.88;10788191;26;20016;-72
2024/04/19 00:54:13;;;;;;;9.30;6.15;;;;;;;6.00;100.00;100960.78;10798113;26;20497;-72
2024/04/19 00:59:11;;;;;;;9.38;5.68;;;;;;;5.97;100.00;100961.34;10814951;26;20665;-72
2024/04/19 01:04:08;;;;;;;9.85;5.50;;;;;;;5.95;100.00;100958.91;10821445;26;20117;-72
2024/04/19 01:09:06;;;;;;;11.07;5.68;;;;;;;5.92;100.00;100945.88;10858228;26;20001;-73
2024/04/19 01:14:03;;;;;;;9.48;5.45;;;;;;;5.88;100.00;100925.81;10836742;26;20127;-72
2024/04/19 01:19:00;;;;;;;11.73;5.80;;;;;;;5.79;100.00;100927.50;10829732;26;20005;-73
2024/04/19 01:24:04;;;;;;;11.23;6.13;;;;;;;5.69;100.00;100918.31;10858114;26;20012;-73
2024/04/19 01:29:01;;;;;;;6.85;6.15;;;;;;;5.62;100.00;100906.97;10882345;26;20000;-74
2024/04/19 01:33:58;;;;;;;7.07;6.50;;;;;;;5.49;100.00;100907.56;10866418;26;20207;-73
2024/04/19 01:38:56;;;;;;;8.48;6.20;;;;;;;5.25;100.00;100902.81;10857687;26;20340;-75
2024/04/19 01:43:53;;;;;;;8.95;6.60;;;;;;;5.13;100.00;100894.19;10876847;26;20466;-75
2024/04/19 01:48:50;;;;;;;8.70;5.53;;;;;;;4.98;100.00;100876.06;10882140;26;20012;-71
2024/04/19 01:53:47;;;;;;;7.95;6.03;;;;;;;4.95;100.00;100870.41;10863627;26;20005;-72
2024/04/19 01:58:44;;;;;;;7.70;6.90;;;;;;;4.76;100.00;100857.44;10803581;26;20006;-72
2024/04/19 02:03:41;;;;;;;8.52;6.57;;;;;;;4.76;100.00;100846.63;10791739;26;20021;-73
2024/04/19 02:08:39;;;;;;;6.40;5.90;;;;;;;4.69;100.00;100829.84;10790249;26;20005;-73
2024/04/19 02:13:36;;;;;;;7.22;6.53;;;;;;;4.68;100.00;100808.44;10780706;26;20078;-71
2024/04/19 02:18:33;;;;;;;9.30;7.03;;;;;;;4.64;100.00;100803.59;10851715;26;20020;-70
2024/04/19 02:23:36;;;;;;;7.32;6.35;;;;;;;4.62;100.00;100786.81;10851012;26;20025;-71
2024/04/19 02:33:51;;;;;;;12.98;6.57;;;;;;;4.59;100.00;100745.91;10856048;26;20013;-72
2024/04/19 02:38:48;;;;;;;9.68;6.63;;;;;;;4.59;100.00;100726.94;10848356;26;20013;-72
2024/04/19 02:43:46;;;;;;;11.38;6.53;;;;;;;4.47;100.00;100723.75;10843248;26;20468;-70
2024/04/19 02:48:45;;;;;;;7.80;7.00;;;;;;;4.50;100.00;100709.66;10850691;26;20449;-70
2024/04/19 02:53:43;;;;;;;6.43;5.50;;;;;;;4.38;100.00;100689.13;10851986;26;20005;-72
2024/04/19 02:58:40;;;;;;;7.78;5.80;;;;;;;4.37;100.00;100676.69;10847921;26;20063;-72
2024/04/19 03:03:37;;;;;;;6.65;5.60;;;;;;;4.42;100.00;100644.16;10858527;26;20074;-72
2024/04/19 03:08:35;;;;;;;7.90;5.40;;;;;;;4.39;100.00;100635.81;10855231;26;19997;-72
2024/04/19 03:13:32;;;;;;;10.85;5.82;;;;;;;4.38;100.00;100613.31;10856401;26;20005;-71
2024/04/19 03:18:29;;;;;;;6.40;5.65;;;;;;;4.35;100.00;100605.78;10856503;26;20040;-74
2024/04/19 03:23:27;;;;;;;7.07;5.45;;;;;;;4.30;100.00;100605.81;10854206;26;19996;-74
2024/04/19 03:28:24;;;;;;;9.02;5.65;;;;;;;4.22;100.00;100579.31;10843586;26;20080;-73
2024/04/19 03:33:21;;;;;;;6.65;5.38;;;;;;;4.21;100.00;100569.59;10844365;26;20358;-73
2024/04/19 03:38:19;;;;;;;5.22;4.72;;;;;;;4.22;100.00;100549.53;10848838;26;20001;-74
2024/04/19 03:43:16;;;;;;;6.15;4.88;;;;;;;4.20;100.00;100546.28;10855349;26;20119;-71
2024/04/19 03:48:13;;;;;;;6.38;4.60;;;;;;;4.25;100.00;100527.34;10850770;26;20019;-73
2024/04/19 03:53:14;;;;;;;6.97;5.30;;;;;;;4.16;100.00;100508.19;10855928;26;20024;-73
2024/04/19 03:58:11;;;;;;;8.10;5.32;;;;;;;4.12;100.00;100495.47;10839808;26;20020;-71
2024/04/19 04:03:08;;;;;;;5.90;4.85;;;;;;;4.11;100.00;100483.06;10840257;26;20034;-72
2024/04/19 04:08:06;;;;;;;7.05;5.40;;;;;;;4.19;100.00;100469.72;10849660;26;20437;-72
2024/04/19 04:13:03;;;;;;;5.63;5.13;;;;;;;4.13;100.00;100453.78;10846992;26;20005;-72
2024/04/19 04:18:01;;;;;;;10.57;5.18;;;;;;;4.21;100.00;100439.69;10847539;26;20012;-72
2024/04/19 04:23:00;;;;;;;6.00;5.40;;;;;;;4.15;100.00;100435.38;10854027;26;20023;-72
2024/04/19 04:27:57;;;;;;;6.93;5.18;;;;;;;4.12;100.00;100419.72;10795378;26;20020;-72
2024/04/19 04:32:54;;;;;;;5.63;4.78;;;;;;;4.07;100.00;100395.41;10768852;26;20080;-75
2024/04/19 04:37:52;;;;;;;6.20;4.82;;;;;;;4.05;100.00;100397.59;10808856;26;20460;-76
2024/04/19 04:42:49;;;;;;;5.72;4.47;;;;;;;3.99;100.00;100384.09;10810294;26;20006;-76
2024/04/19 04:47:46;;;;;;;7.15;4.95;;;;;;;3.99;100.00;100373.28;10788956;26;20007;-77
2024/04/19 04:52:43;;;;;;;5.32;4.80;;;;;;;4.05;100.00;100365.13;10805629;26;20079;-73
2024/04/19 04:57:41;;;;;;;5.07;4.53;;;;;;;3.82;100.00;100366.66;10817353;26;20001;-75
2024/04/19 05:02:38;;;;;;;10.25;4.32;;;;;;;3.72;100.00;100351.31;10848406;26;20294;-75
2024/04/19 05:07:36;;;;;;;4.70;3.85;;;;;;;3.73;100.00;100309.63;10856140;26;20028;-75
2024/04/19 05:12:33;;;;;;;4.40;3.58;;;;;;;3.76;100.00;100314.47;10856586;26;20399;-75
2024/04/19 05:17:30;;;;;;;5.00;3.80;;;;;;;3.75;100.00;100302.06;10859483;26;20017;-74
2024/04/19 05:22:27;;;;;;;6.95;3.83;;;;;;;3.90;100.00;100287.59;10845060;26;20013;-76
2024/04/19 05:27:24;;;;;;;5.05;4.30;;;;;;;3.96;100.00;100283.75;10821227;26;20533;-74
2024/04/19 05:32:22;;;;;;;4.53;3.55;;;;;;;3.97;100.00;100261.84;10821332;26;19997;-75
2024/04/19 05:37:19;;;;;;;6.75;3.80;;;;;;;4.08;100.00;100253.63;10829881;26;20010;-74
2024/04/19 05:42:16;;;;;;;5.82;3.92;;;;;;;4.06;100.00;100242.28;10860336;26;20040;-74
2024/04/19 05:47:14;;;;;;;5.22;4.32;;;;;;;4.18;100.00;100232.69;10853093;26;20471;-74
2024/04/19 05:52:11;;;;;;;5.20;3.88;;;;;;;4.18;100.00;100235.41;10832120;26;20018;-75
2024/04/19 05:57:08;;;;;;;6.50;3.80;;;;;;;4.24;100.00;100224.50;10834778;26;20013;-74
2024/04/19 06:02:05;;;;;;;5.05;3.75;;;;;;;4.30;100.00;100216.06;10873856;26;20019;-74
2024/04/19 06:07:02;;;;;;;4.80;3.72;;;;;;;4.35;100.00;100196.25;10854333;26;20004;-74
2024/04/19 06:12:01;;;;;;;6.97;3.70;;;;;;;4.39;100.00;100181.84;10852881;26;20015;-74
2024/04/19 06:16:58;;;;;;;9.38;4.00;;;;;;;4.46;100.00;100181.50;10801884;26;20013;-75
2024/04/19 06:21:55;;;;;;;7.80;3.47;;;;;;;4.53;100.00;100165.69;10820744;26;20040;-74
2024/04/19 06:26:54;;;;;;;5.45;4.03;;;;;;;4.56;100.00;100148.06;10830758;26;20001;-74
2024/04/19 06:31:51;;;;;;;5.78;3.75;;;;;;;4.64;100.00;100144.69;10786343;26;20447;-75
2024/04/19 06:36:48;;;;;;;6.72;4.18;;;;;;;4.73;100.00;100132.09;10809274;26;20001;-74
2024/04/19 06:41:45;;;;;;;8.77;4.30;;;;;;;4.77;100.00;100122.31;10858524;26;20009;-74
2024/04/19 06:46:42;;;;;;;7.47;3.97;;;;;;;4.91;100.00;100122.38;10838684;26;20459;-74
2024/04/19 06:51:40;;;;;;;8.23;4.50;;;;;;;4.96;100.00;100107.94;10840550;26;20009;-74
2024/04/19 06:56:40;;;;;;;8.50;4.85;;;;;;;4.99;100.00;100091.91;10799685;26;20012;-74
2024/04/19 07:01:37;;;;;;;6.07;4.82;;;;;;;5.02;100.00;100101.34;10836582;26;20006;-74
2024/04/19 07:06:35;;;;;;;7.75;5.60;;;;;;;5.32;100.00;100082.97;10788925;26;20001;-74
2024/04/19 07:11:38;;;;;;;7.53;5.43;;;;;;;5.39;100.00;100072.53;10779254;26;20045;-73
2024/04/19 07:16:35;;;;;;;7.80;5.72;;;;;;;5.45;100.00;100065.91;10820923;26;20029;-73
2024/04/19 07:21:34;;;;;;;7.85;5.43;;;;;;;5.57;100.00;100079.81;10808205;26;20017;-74
2024/04/19 07:26:34;;;;;;;6.85;5.55;;;;;;;5.52;100.00;100066.31;10782833;26;20028;-74
2024/04/19 07:31:31;;;;;;;9.93;5.57;;;;;;;5.51;100.00;100069.34;10788818;26;20350;-75
2024/04/19 07:36:28;;;;;;;7.15;4.75;;;;;;;5.53;100.00;100046.25;10801183;26;20015;-74
2024/04/19 07:41:26;;;;;;;8.10;5.25;;;;;;;5.70;100.00;100061.91;10837762;26;20021;-74
2024/04/19 07:46:24;;;;;;;7.53;5.55;;;;;;;5.75;100.00;100052.88;10773931;26;20020;-74
2024/04/19 07:51:21;;;;;;;9.10;5.45;;;;;;;5.98;100.00;100046.44;10782642;26;20811;-74
2024/04/19 07:56:18;;;;;;;9.57;5.50;;;;;;;6.09;100.00;100047.84;10788358;26;20016;-74
2024/04/19 08:01:15;;;;;;;9.13;5.60;;;;;;;6.29;100.00;100035.75;10789264;26;20015;-73
2024/04/19 08:06:12;;;;;;;6.80;4.90;;;;;;;6.50;100.00;100033.38;10821926;26;20044;-74
2024/04/19 08:11:09;;;;;;;10.70;4.93;;;;;;;6.64;100.00;100024.38;10818594;26;20351;-74
2024/04/19 08:16:07;;;;;;;7.63;5.10;;;;;;;6.79;100.00;100015.84;10784906;26;20042;-73
2024/04/19 08:21:04;;;;;;;10.32;5.10;;;;;;;6.84;100.00;100013.00;10782179;26;20001;-73
2024/04/19 08:26:01;;;;;;;9.45;5.55;;;;;;;6.97;100.00;100010.53;10793202;26;20080;-73
2024/04/19 08:30:58;;;;;;;9.88;4.95;;;;;;;7.07;100.00;100005.63;10778116;26;21809;-73
2024/04/19 08:35:57;;;;;;;9.20;4.97;;;;;;;7.40;100.00;100007.22;10779470;26;20020;-73
2024/04/19 08:40:58;;;;;;;6.15;3.53;;;;;;;7.57;100.00;99993.69;10799193;26;20016;-73
2024/04/19 08:45:57;;;;;;;5.55;3.33;;;;;;;7.67;100.00;100017.09;10826138;26;20010;-73
2024/04/19 08:51:01;;;;;;;9.65;4.22;;;;;;;7.67;100.00;100012.44;10771618;26;20012;-73
2024/04/19 08:55:59;;;;;;;10.60;3.17;;;;;;;7.69;100.00;100015.66;10816424;26;20001;-73
2024/04/19 09:00:56;;;;;;;10.18;3.70;;;;;;;7.45;100.00;100031.56;10811361;26;20009;-73
2024/04/19 09:05:56;;;;;;;8.40;3.20;;;;;;;6.97;100.00;100038.50;10843776;26;20460;-73
2024/04/19 09:10:53;;;;;;;4.82;3.00;;;;;;;6.22;100.00;100064.41;10855099;26;20004;-74
2024/04/19 09:15:50;;;;;;;5.45;2.88;;;;;;;6.05;100.00;100044.13;10844292;26;20014;-74
2024/04/19 09:20:50;;;;;;;4.57;2.60;;;;;;;6.33;100.00;100044.09;10835770;26;20361;-74
2024/04/19 09:25:54;;;;;;;3.70;2.50;;;;;;;6.56;100.00;100038.69;10835099;26;20002;-74
2024/04/19 09:30:55;;;;;;;6.80;2.47;;;;;;;6.74;100.00;100048.56;10782859;26;20017;-73
2024/04/19 09:35:56;;;;;;;4.45;2.25;;;;;;;6.86;100.00;100043.38;10787469;26;20469;-75
2024/04/19 09:40:53;;;;;;;4.53;2.92;;;;;;;6.79;100.00;100040.31;10798029;26;20001;-74
2024/04/19 09:45:56;;;;;;;7.30;3.33;;;;;;;6.49;100.00;100058.91;10819207;26;20398;-74
2024/04/19 09:50:58;;;;;;;7.80;3.55;;;;;;;6.29;100.00;100030.31;10787859;26;20029;-73
2024/04/19 09:56:09;;;;;;;10.82;3.50;;;;;;;6.48;100.00;100032.88;10782201;26;20009;-74
2024/04/19 10:01:06;;;;;;;11.05;4.15;;;;;;;6.56;100.00;100030.53;10836446;26;20109;-73
2024/04/19 10:06:05;;;;;;;6.85;3.28;;;;;;;6.90;100.00;100016.41;10766183;26;20021;-73
2024/04/19 10:11:03;;;;;;;5.70;3.17;;;;;;;7.20;100.00;100020.25;10778423;26;20009;-74
2024/04/19 10:16:01;;;;;;;11.65;4.10;;;;;;;7.53;100.00;100006.31;10756166;26;20024;-74
2024/04/19 10:20:59;;;;;;;8.45;4.47;;;;;;;7.63;100.00;99997.88;10765016;26;20017;-74
2024/04/19 10:25:59;;;;;;;9.60;4.32;;;;;;;8.13;100.00;99985.81;10769051;26;20755;-75
2024/04/19 10:30:57;;;;;;;10.35;4.03;;;;;;;8.50;100.00;99973.50;10850929;26;20013;-74
2024/04/19 10:36:03;;;;;;;8.07;3.40;;;;;;;8.11;100.00;99977.94;10767929;26;20005;-74
2024/04/19 10:41:04;;;;;;;9.88;4.68;;;;;;;7.64;100.00;99980.44;10820133;26;20013;-75
2024/04/19 10:46:01;;;;;;;21.45;4.50;;;;;;;7.76;100.00;99977.09;10826859;26;20017;-75
2024/04/19 10:51:02;;;;;;;8.35;4.45;;;;;;;7.82;100.00;99969.56;10786142;26;20016;-74
2024/04/19 10:55:59;;;;;;;8.30;4.28;;;;;;;7.99;100.00;99969.63;10783914;26;20016;-74
2024/04/19 11:00:56;;;;;;;10.00;3.78;;;;;;;8.39;100.00;99972.97;10836827;26;20072;-74
2024/04/19 11:05:55;;;;;;;11.00;4.18;;;;;;;7.91;100.00;99967.66;10789291;26;20013;-74
2024/04/19 11:10:53;;;;;;;6.72;4.03;;;;;;;8.20;100.00;99959.69;10834971;26;20009;-73
2024/04/19 11:15:50;;;;;;;12.15;5.60;;;;;;;8.27;100.00;99958.44;10781406;26;20021;-73
2024/04/19 11:20:55;;;;;;;9.52;3.92;;;;;;;8.32;100.00;99944.63;10833556;26;20402;-74
2024/04/19 11:26:04;;;;;;;8.05;3.75;;;;;;;8.42;100.00;99944.31;10787643;26;20441;-74
2024/04/19 11:31:10;;;;;;;6.10;4.55;;;;;;;8.47;100.00;99940.63;10795978;26;20518;-74
2024/04/19 11:36:12;;;;;;;12.32;4.88;;;;;;;8.38;100.00;99938.72;10841020;26;20019;-73
2024/04/19 11:41:13;;;;;;;9.82;3.70;;;;;;;8.42;100.00;99947.06;10829515;26;20016;-76
2024/04/19 11:46:10;;;;;;;6.43;3.42;;;;;;;8.38;100.00;99949.59;10780437;26;20028;-75
2024/04/19 11:51:11;;;;;;;11.25;4.22;;;;;;;7.42;100.00;99966.91;10773672;26;20002;-74
2024/04/19 11:56:08;;;;;;;6.03;5.30;;;;;;;7.24;100.00;99950.56;10788380;26;20036;-75
2024/04/19 12:01:05;;;;;;;13.68;4.97;;;;;;;7.55;100.00;99944.25;10776552;26;20022;-75
2024/04/19 12:06:03;;;;;;;11.63;5.47;;;;;;;7.67;100.00;99936.25;10780132;26;20618;-75
2024/04/19 12:11:00;;;;;;;8.35;3.83;;;;;;;8.22;100.00;99932.94;10830154;26;20085;-75
2024/04/19 12:15:57;;;;;;;11.85;4.65;;;;;;;8.84;100.00;99922.75;10781188;26;20005;-75
2024/04/19 12:21:15;;;;;;;8.55;4.50;;;;;;;9.88;100.00;99916.78;10807986;26;20001;-75
2024/04/19 12:26:13;;;;;;;13.98;5.60;;;;;;;9.88;100.00;99916.78;10844472;26;20336;-75
2024/04/19 12:31:11;;;;;;;6.78;4.05;;;;;;;9.79;100.00;99904.31;10841538;26;20474;-75
2024/04/19 12:36:08;;;;;;;8.77;4.65;;;;;;;10.88;100.00;99897.69;10853496;26;20004;-75
2024/04/19 12:41:05;;;;;;;9.60;4.85;;;;;;;10.08;100.00;99898.00;10867406;26;20004;-75
2024/04/19 12:46:03;;;;;;;11.25;5.72;;;;;;;10.21;100.00;99902.41;10851495;26;20010;-74
2024/04/19 12:51:00;;;;;;;13.65;5.15;;;;;;;9.70;100.00;99904.41;10805883;26;20435;-76
2024/04/19 12:55:57;;;;;;;12.93;5.65;;;;;;;10.46;100.00;99902.50;10805427;26;20029;-76
2024/04/19 13:01:00;;;;;;;12.30;5.63;;;;;;;10.61;100.00;99893.66;10793803;26;20012;-75
2024/04/19 13:05:57;;;;;;;11.73;4.80;;;;;;;10.31;100.00;99891.06;10851216;26;20479;-75
2024/04/19 13:10:54;;;;;;;14.07;4.75;;;;;;;9.95;100.00;99888.16;10832843;26;20045;-75
2024/04/19 13:15:51;;;;;;;9.15;5.35;;;;;;;10.64;100.00;99876.59;10777123;26;20447;-75
2024/04/19 13:20:49;;;;;;;12.27;4.90;;;;;;;10.02;100.00;99882.94;10786459;26;20013;-75
2024/04/19 13:25:46;;;;;;;9.45;5.07;;;;;;;9.61;100.00;99890.81;10792682;26;20020;-75
2024/04/19 13:30:43;;;;;;;10.38;5.40;;;;;;;9.43;100.00;99890.09;10774158;26;20017;-76
2024/04/19 13:35:40;;;;;;;9.63;5.63;;;;;;;9.54;100.00;99889.72;10785502;26;20227;-76
2024/04/19 13:40:38;;;;;;;12.20;5.25;;;;;;;8.84;100.00;99906.41;10786122;26;20056;-76
2024/04/19 13:45:36;;;;;;;12.13;5.22;;;;;;;8.76;100.00;99896.34;10839245;26;20012;-76
2024/04/19 13:50:33;;;;;;;7.45;4.45;;;;;;;8.93;100.00;99917.28;10797762;26;20033;-76
2024/04/19 13:55:31;;;;;;;11.85;4.97;;;;;;;8.87;100.00;99883.97;10858257;26;20045;-76
2024/04/19 14:00:28;;;;;;;7.93;4.47;;;;;;;8.80;100.00;99900.03;10811755;26;20015;-76
2024/04/19 14:05:26;;;;;;;11.38;5.13;;;;;;;8.64;100.00;99886.91;10864169;26;20006;-76
2024/04/19 14:10:23;;;;;;;9.13;4.55;;;;;;;9.42;100.00;99883.06;10800914;26;20314;-76
2024/04/19 14:15:20;;;;;;;9.77;4.60;;;;;;;9.63;100.00;99871.34;10847888;26;20017;-76
2024/04/19 14:20:17;;;;;;;11.05;4.72;;;;;;;9.31;100.00;99890.03;10782013;26;20073;-77
2024/04/19 14:25:14;;;;;;;9.18;5.18;;;;;;;8.58;100.00;99895.59;10782123;26;20504;-76
2024/04/19 14:30:12;;;;;;;10.25;5.03;;;;;;;8.51;100.00;99887.91;10776432;26;19999;-76
2024/04/19 14:35:09;;;;;;;11.38;4.55;;;;;;;9.12;100.00;99884.16;10778994;26;20528;-76
2024/04/19 14:40:07;;;;;;;16.63;5.60;;;;;;;8.83;100.00;99877.56;10811078;26;20459;-76
2024/04/19 14:45:04;;;;;;;9.00;4.90;;;;;;;8.81;100.00;99868.91;10844954;26;20039;-76
2024/04/19 14:50:01;;;;;;;7.45;4.63;;;;;;;8.44;100.00;99879.44;10784700;26;20038;-76
2024/04/19 14:54:58;;;;;;;9.02;4.15;;;;;;;8.36;100.00;99875.56;10807081;26;20793;-76
2024/04/19 14:59:56;;;;;;;10.85;4.65;;;;;;;8.69;100.00;99875.03;10832277;26;20471;-76
2024/04/19 15:04:53;;;;;;;10.57;4.97;;;;;;;8.82;100.00;99875.97;10836258;26;20017;-75
2024/04/19 15:09:50;;;;;;;8.98;4.68;;;;;;;8.92;100.00;99867.44;10849921;26;20001;-76
2024/04/19 15:14:48;;;;;;;11.02;4.40;;;;;;;8.87;100.00;99856.72;10789288;26;20511;-76
2024/04/19 15:19:45;;;;;;;8.73;4.35;;;;;;;8.84;100.00;99851.88;10845802;26;20009;-75
2024/04/19 15:24:42;;;;;;;7.43;4.50;;;;;;;8.64;100.00;99864.31;10777592;26;20091;-75
2024/04/19 15:29:39;;;;;;;11.82;5.28;;;;;;;8.69;100.00;99861.41;10778817;26;19998;-75
2024/04/19 15:34:36;;;;;;;13.70;5.50;;;;;;;8.90;100.00;99858.78;10766012;26;20006;-76
2024/04/19 15:39:47;;;;;;;9.85;4.22;;;;;;;8.92;100.00;99853.78;10750961;26;20010;-76
2024/04/19 15:44:44;;;;;;;8.13;4.80;;;;;;;8.70;100.00;99854.03;10758955;26;20017;-77
2024/04/19 15:49:43;;;;;;;15.75;4.40;;;;;;;8.14;100.00;99857.50;10828638;26;20083;-79
2024/04/19 15:54:41;;;;;;;9.50;4.63;;;;;;;7.73;100.00;99869.69;10853025;26;20493;-79
2024/04/19 15:59:38;;;;;;;10.65;4.43;;;;;;;7.71;100.00;99869.22;10792940;26;20023;-77
2024/04/19 16:04:35;;;;;;;10.90;4.30;;;;;;;7.63;100.00;99886.31;10806415;26;20016;-77
2024/04/19 16:09:32;;;;;;;11.30;4.57;;;;;;;7.86;100.00;99894.34;10770163;26;20017;-76
2024/04/19 16:14:30;;;;;;;6.75;3.72;;;;;;;7.93;100.00;99900.09;10765563;26;20108;-76
2024/04/19 16:19:27;;;;;;;12.30;3.72;;;;;;;8.05;100.00;99905.72;10812210;26;20083;-77
2024/04/19 16:24:24;;;;;;;9.48;3.88;;;;;;;8.20;100.00;99913.41;10834852;26;20533;-77
2024/04/19 16:29:21;;;;;;;7.28;4.18;;;;;;;7.69;100.00;99923.13;10784254;26;19998;-76
2024/04/19 16:34:18;;;;;;;7.20;3.42;;;;;;;7.50;100.00;99947.13;10768631;26;21227;-77
2024/04/19 16:39:16;;;;;;;3.88;3.33;;;;;;;7.15;100.00;99949.72;10778301;26;20141;-77
2024/04/19 16:44:13;;;;;;;5.50;3.70;;;;;;;7.10;100.00;99960.69;10773324;26;20469;-77
2024/04/19 16:49:11;;;;;;;6.30;3.58;;;;;;;7.36;100.00;99964.34;10778536;26;20029;-76
2024/04/19 16:54:08;;;;;;;6.32;4.00;;;;;;;7.37;100.00;99965.13;10775078;26;20474;-75
2024/04/19 16:59:05;;;;;;;6.22;3.47;;;;;;;7.30;100.00;99973.75;10773615;26;20006;-76
2024/04/19 17:04:02;;;;;;;4.95;3.55;;;;;;;7.04;100.00;99983.72;10792597;26;20013;-75
2024/04/19 17:09:00;;;;;;;6.43;4.28;;;;;;;7.00;100.00;99999.03;10790885;26;20100;-75
2024/04/19 17:13:57;;;;;;;4.53;3.60;;;;;;;6.65;100.00;100004.25;10777397;26;20108;-75
2024/04/19 17:18:54;;;;;;;4.60;3.40;;;;;;;6.50;100.00;100013.56;10735738;26;20084;-76
2024/04/19 17:23:51;;;;;;;3.22;2.92;;;;;;;6.33;100.00;100025.06;10754808;26;20016;-76
2024/04/19 17:28:48;;;;;;;4.03;3.20;;;;;;;6.35;100.00;100033.72;10762971;26;20013;-75
2024/04/19 17:33:45;;;;;;;3.40;2.92;;;;;;;6.07;100.00;100033.78;10780879;26;20001;-76
2024/04/19 17:38:43;;;;;;;3.33;2.70;;;;;;;6.03;100.00;100049.06;10774372;26;19997;-75
2024/04/19 17:43:40;;;;;;;3.92;2.90;;;;;;;5.96;100.00;100048.66;10830520;26;20005;-75
2024/04/19 17:48:37;;;;;;;3.20;2.40;;;;;;;5.98;100.00;100051.88;10797945;26;20014;-75
2024/04/19 17:53:34;;;;;;;3.58;2.85;;;;;;;5.81;100.00;100081.50;10770128;26;20006;-76
2024/04/19 17:58:32;;;;;;;3.45;2.85;;;;;;;5.60;100.00;100109.03;10777926;26;20005;-75
2024/04/19 18:03:29;;;;;;;4.10;3.00;;;;;;;5.61;100.00;100107.91;10736556;26;20002;-76
2024/04/19 18:08:26;;;;;;;2.80;2.50;;;;;;;5.51;100.00;100135.22;10754740;26;20002;-76
2024/04/19 18:13:23;;;;;;;5.35;2.80;;;;;;;5.36;100.00;100152.56;10773192;26;20006;-76
2024/04/19 18:18:20;;;;;;;2.75;2.38;;;;;;;5.43;100.00;100165.72;10767014;26;20001;-76
2024/04/19 18:23:18;;;;;;;3.20;2.40;;;;;;;5.43;100.00;100188.22;10760401;26;20568;-76
2024/04/19 18:28:16;;;;;;;3.30;2.65;;;;;;;5.58;100.00;100206.16;10769326;26;20569;-75
2024/04/19 18:33:13;;;;;;;2.90;2.60;;;;;;;5.41;100.00;100230.31;10828372;26;20012;-75
2024/04/19 18:38:11;;;;;;;2.55;2.25;;;;;;;5.37;100.00;100243.63;10803776;26;20002;-76
2024/04/19 18:43:08;;;;;;;3.70;2.40;;;;;;;5.33;100.00;100258.84;10813661;26;20344;-76
2024/04/19 18:48:07;;;;;;;5.78;3.10;;;;;;;5.36;100.00;100273.72;10806873;26;20108;-76
2024/04/19 18:53:05;;;;;;;5.95;2.90;;;;;;;5.36;100.00;100285.41;10800873;26;20487;-76
2024/04/19 18:58:02;;;;;;;4.80;3.35;;;;;;;5.37;100.00;100307.91;10831594;26;20433;-76
2024/04/19 19:02:59;;;;;;;2.92;2.60;;;;;;;5.29;100.00;100325.59;10810005;26;20084;-76
2024/04/19 19:07:57;;;;;;;3.50;3.20;;;;;;;5.31;100.00;100331.53;10778738;26;19998;-76
2024/04/19 19:12:57;;;;;;;3.42;2.85;;;;;;;5.26;100.00;100345.97;10839417;26;20204;-75
2024/04/19 19:17:54;;;;;;;3.42;3.00;;;;;;;5.14;100.00;100367.28;10858485;26;20005;-76
2024/04/19 19:22:51;;;;;;;4.10;3.00;;;;;;;5.22;100.00;100382.06;10848596;26;20016;-76
2024/04/19 19:27:48;;;;;;;3.38;2.83;;;;;;;5.22;100.00;100403.75;10844953;26;20016;-75
2024/04/19 19:32:45;;;;;;;6.22;2.90;;;;;;;5.19;100.00;100410.56;10846632;26;20005;-76
2024/04/19 19:37:43;;;;;;;3.38;3.08;;;;;;;5.39;100.00;100430.41;10850465;26;20008;-77
2024/04/19 19:42:40;;;;;;;5.50;3.42;;;;;;;5.31;100.00;100433.75;10867919;26;20532;-77
2024/04/19 19:47:37;;;;;;;3.47;3.17;;;;;;;5.32;100.00;100452.44;10862500;26;20004;-77
2024/04/19 19:52:35;;;;;;;3.90;3.10;;;;;;;5.45;100.00;100461.78;10860122;26;20680;-76
2024/04/19 19:57:32;;;;;;;3.25;2.88;;;;;;;5.33;100.00;100469.53;10856720;26;20012;-77
2024/04/19 20:07:45;;;;;;;3.22;2.92;;;;;;;5.52;100.00;100489.34;10864101;26;20074;-77
2024/04/19 20:12:43;;;;;;;3.30;2.97;;;;;;;5.44;100.00;100503.56;10822740;26;20462;-77
2024/04/19 20:17:41;;;;;;;4.22;2.95;;;;;;;5.51;100.00;100504.03;10824347;26;20009;-78
2024/04/19 20:22:38;;;;;;;5.53;3.60;;;;;;;5.61;100.00;100525.59;10852540;26;20001;-79
2024/04/19 20:27:36;;;;;;;4.15;3.40;;;;;;;5.43;100.00;100534.47;10824725;26;20010;-77
2024/04/19 20:32:34;;;;;;;3.92;3.35;;;;;;;5.49;100.00;100555.03;10777265;26;20012;-77
2024/04/19 20:37:31;;;;;;;3.92;3.40;;;;;;;5.51;100.00;100569.09;10783112;26;20466;-75
2024/04/19 20:42:28;;;;;;;7.15;3.60;;;;;;;5.56;100.00;100590.75;10817797;26;20037;-76
2024/04/19 20:47:31;;;;;;;4.57;2.78;;;;;;;5.50;100.00;100589.19;10825391;26;20345;-76
2024/04/19 20:52:28;;;;;;;3.53;3.00;;;;;;;5.44;100.00;100601.19;10824103;26;20001;-76
2024/04/19 20:57:26;;;;;;;3.75;2.60;;;;;;;5.56;100.00;100614.34;10829172;26;20033;-76
2024/04/19 21:02:23;;;;;;;3.78;2.60;;;;;;;5.60;100.00;100631.66;10790723;26;20006;-77
2024/04/19 21:07:20;;;;;;;4.30;3.00;;;;;;;5.59;100.00;100638.19;10819928;26;20020;-77
2024/04/19 21:12:17;;;;;;;4.90;3.00;;;;;;;5.54;100.00;100649.88;10808594;26;20056;-78
2024/04/19 21:17:15;;;;;;;3.72;3.05;;;;;;;5.38;100.00;100672.81;10804620;26;20407;-77
2024/04/19 21:22:12;;;;;;;4.20;3.00;;;;;;;5.27;100.00;100678.31;10839105;26;20013;-77
2024/04/19 21:27:10;;;;;;;5.30;3.03;;;;;;;5.08;100.00;100693.63;10786577;26;20049;-78
2024/04/19 21:32:08;;;;;;;4.03;2.65;;;;;;;5.12;100.00;100693.88;10800741;26;20102;-77
2024/04/19 21:37:05;;;;;;;5.03;2.90;;;;;;;4.95;100.00;100707.81;10816179;26;20019;-77
2024/04/19 21:42:02;;;;;;;6.07;2.47;;;;;;;4.88;100.00;100720.88;10837281;26;20002;-78
2024/04/19 21:46:59;;;;;;;3.25;2.65;;;;;;;4.89;100.00;100730.59;10813583;26;20025;-77
2024/04/19 21:51:57;;;;;;;2.92;2.63;;;;;;;4.82;100.00;100739.84;10857927;26;20009;-77
2024/04/19 21:56:55;;;;;;;3.20;2.78;;;;;;;4.71;100.00;100746.41;10858337;26;20457;-76
2024/04/19 22:01:52;;;;;;;4.00;2.90;;;;;;;4.84;100.00;100762.03;10830477;26;20060;-77
2024/04/19 22:06:49;;;;;;;5.38;3.10;;;;;;;4.85;100.00;100758.25;10846670;26;20012;-77
2024/04/19 22:11:46;;;;;;;4.20;3.45;;;;;;;4.84;100.00;100772.06;10852200;26;20352;-77
2024/04/19 22:16:43;;;;;;;4.00;2.95;;;;;;;4.72;100.00;100783.25;10865911;26;20432;-76
2024/04/19 22:21:41;;;;;;;3.45;3.00;;;;;;;4.67;100.00;100799.50;10851407;26;20001;-77
2024/04/19 22:26:38;;;;;;;3.28;2.75;;;;;;;4.56;100.00;100803.34;10791960;26;20004;-77
2024/04/19 22:31:39;;;;;;;4.45;2.45;;;;;;;4.50;100.00;100815.25;10814925;26;20338;-77
2024/04/19 22:36:39;;;;;;;3.07;2.50;;;;;;;4.40;100.00;100822.31;10859176;26;20085;-80
2024/04/19 22:41:38;;;;;;;2.70;2.30;;;;;;;4.63;100.00;100836.34;10874082;26;20387;-76
2024/04/19 22:46:36;;;;;;;5.05;2.72;;;;;;;4.53;100.00;100841.81;10826565;26;20005;-76
2024/04/19 22:51:33;;;;;;;3.03;2.72;;;;;;;4.51;100.00;100843.97;10869040;26;20016;-77
2024/04/19 22:56:32;;;;;;;5.75;3.88;;;;;;;4.49;100.00;100862.38;10851609;26;20083;-77
2024/04/19 23:01:29;;;;;;;3.95;2.88;;;;;;;4.40;100.00;100876.47;10852035;26;20389;-77